sensor_id;sensor_type;location;lat;lon;timestamp;pressure;altitude;pressure_sealevel;temperature;humidity
39363;BME280;25088;43.238;23.110;2022-12-18T00:01:27;97343.88;;;6.66;100.00
39363;BME280;25088;43.238;23.110;2022-12-18T00:03:54;97344.94;;;6.65;100.00
39363;BME280;25088;43.238;23.110;2022-12-18T00:06:20;97347.03;;;6.56;100.00
39363;BME280;25088;43.238;23.110;2022-12-18T00:08:45;97348.94;;;6.49;100.00
39363;BME280;25088;43.238;23.110;2022-12-18T00:11:11;97348.72;;;6.44;100.00
39363;BME280;25088;43.238;23.110;2022-12-18T00:13:37;97351.84;;;6.41;100.00
39363;BME280;25088;43.238;23.110;2022-12-18T00:16:03;97351.22;;;6.39;100.00
39363;BME280;25088;43.238;23.110;2022-12-18T00:18:29;97358.13;;;6.28;100.00
39363;BME280;25088;43.238;23.110;2022-12-18T00:20:57;97354.97;;;6.31;100.00
39363;BME280;25088;43.238;23.110;2022-12-18T00:23:23;97367.28;;;6.34;100.00
39363;BME280;25088;43.238;23.110;2022-12-18T00:25:48;97360.81;;;6.41;100.00
39363;BME280;25088;43.238;23.110;2022-12-18T00:28:13;97377.94;;;6.35;100.00
39363;BME280;25088;43.238;23.110;2022-12-18T00:30:39;97375.84;;;6.24;100.00
39363;BME280;25088;43.238;23.110;2022-12-18T00:33:04;97375.22;;;6.22;100.00
39363;BME280;25088;43.238;23.110;2022-12-18T00:35:29;97376.88;;;6.16;100.00
39363;BME280;25088;43.238;23.110;2022-12-18T00:37:56;97390.22;;;6.18;100.00
39363;BME280;25088;43.238;23.110;2022-12-18T00:40:21;97392.69;;;6.06;100.00
39363;BME280;25088;43.238;23.110;2022-12-18T00:42:47;97393.31;;;6.02;100.00
39363;BME280;25088;43.238;23.110;2022-12-18T00:45:22;97399.38;;;6.04;100.00
39363;BME280;25088;43.238;23.110;2022-12-18T00:47:47;97397.06;;;6.01;100.00
39363;BME280;25088;43.238;23.110;2022-12-18T00:50:12;97394.78;;;5.98;100.00
39363;BME280;25088;43.238;23.110;2022-12-18T00:52:39;97398.13;;;6.00;100.00
39363;BME280;25088;43.238;23.110;2022-12-18T00:55:05;97394.34;;;6.01;100.00
39363;BME280;25088;43.238;23.110;2022-12-18T00:57:31;97403.75;;;5.98;100.00
39363;BME280;25088;43.238;23.110;2022-12-18T00:59:56;97397.28;;;5.99;100.00
39363;BME280;25088;43.238;23.110;2022-12-18T01:02:21;97392.00;;;5.91;100.00
39363;BME280;25088;43.238;23.110;2022-12-18T01:04:46;97402.03;;;5.90;100.00
39363;BME280;25088;43.238;23.110;2022-12-18T01:07:12;97406.16;;;5.86;100.00
39363;BME280;25088;43.238;23.110;2022-12-18T01:09:37;97407.44;;;5.84;100.00
39363;BME280;25088;43.238;23.110;2022-12-18T01:12:02;97411.41;;;5.88;100.00
39363;BME280;25088;43.238;23.110;2022-12-18T01:14:28;97410.84;;;5.92;100.00
39363;BME280;25088;43.238;23.110;2022-12-18T01:16:53;97405.63;;;5.98;100.00
39363;BME280;25088;43.238;23.110;2022-12-18T01:19:18;97410.00;;;5.99;100.00
39363;BME280;25088;43.238;23.110;2022-12-18T01:21:44;97400.63;;;6.01;100.00
39363;BME280;25088;43.238;23.110;2022-12-18T01:24:10;97406.03;;;6.01;100.00
39363;BME280;25088;43.238;23.110;2022-12-18T01:26:36;97403.72;;;5.91;100.00
39363;BME280;25088;43.238;23.110;2022-12-18T01:29:01;97409.56;;;5.95;100.00
39363;BME280;25088;43.238;23.110;2022-12-18T01:31:28;97405.19;;;6.01;100.00
39363;BME280;25088;43.238;23.110;2022-12-18T01:33:54;97406.69;;;6.03;100.00
39363;BME280;25088;43.238;23.110;2022-12-18T01:36:20;97402.31;;;6.02;100.00
39363;BME280;25088;43.238;23.110;2022-12-18T01:38:47;97408.34;;;5.98;100.00
39363;BME280;25088;43.238;23.110;2022-12-18T01:41:12;97401.88;;;5.99;100.00
39363;BME280;25088;43.238;23.110;2022-12-18T01:43:45;97408.13;;;5.99;100.00
39363;BME280;25088;43.238;23.110;2022-12-18T01:46:11;97405.84;;;6.03;100.00
39363;BME280;25088;43.238;23.110;2022-12-18T01:48:37;97403.13;;;6.03;100.00
39363;BME280;25088;43.238;23.110;2022-12-18T01:51:04;97410.66;;;6.07;100.00
39363;BME280;25088;43.238;23.110;2022-12-18T01:53:30;97413.16;;;6.09;100.00
39363;BME280;25088;43.238;23.110;2022-12-18T01:55:56;97410.22;;;6.10;100.00
39363;BME280;25088;43.238;23.110;2022-12-18T01:58:24;97409.19;;;6.11;100.00
39363;BME280;25088;43.238;23.110;2022-12-18T02:00:53;97415.69;;;6.17;100.00
39363;BME280;25088;43.238;23.110;2022-12-18T02:03:19;97413.38;;;6.20;100.00
39363;BME280;25088;43.238;23.110;2022-12-18T02:05:54;97411.69;;;6.26;100.00
39363;BME280;25088;43.238;23.110;2022-12-18T02:08:24;97425.47;;;6.31;100.00
39363;BME280;25088;43.238;23.110;2022-12-18T02:14:04;97441.16;;;6.42;100.00
39363;BME280;25088;43.238;23.110;2022-12-18T02:18:37;97401.50;;;6.35;100.00
39363;BME280;25088;43.238;23.110;2022-12-18T02:26:24;97457.63;;;6.61;100.00
39363;BME280;25088;43.238;23.110;2022-12-18T02:28:56;97455.97;;;6.60;100.00
39363;BME280;25088;43.238;23.110;2022-12-18T02:31:23;97458.47;;;6.61;100.00
39363;BME280;25088;43.238;23.110;2022-12-18T02:33:51;97462.22;;;6.60;100.00
39363;BME280;25088;43.238;23.110;2022-12-18T02:36:18;97468.94;;;6.58;100.00
39363;BME280;25088;43.238;23.110;2022-12-18T02:38:45;97462.03;;;6.55;100.00
39363;BME280;25088;43.238;23.110;2022-12-18T02:41:11;97459.97;;;6.57;100.00
39363;BME280;25088;43.238;23.110;2022-12-18T02:43:37;97454.94;;;6.47;100.00
39363;BME280;25088;43.238;23.110;2022-12-18T02:46:20;97460.13;;;6.36;100.00
39363;BME280;25088;43.238;23.110;2022-12-18T02:48:47;97459.28;;;6.22;100.00
39363;BME280;25088;43.238;23.110;2022-12-18T02:51:19;97461.34;;;6.13;100.00
39363;BME280;25088;43.238;23.110;2022-12-18T02:53:51;97467.19;;;6.17;100.00
39363;BME280;25088;43.238;23.110;2022-12-18T02:56:22;97462.41;;;6.26;100.00
39363;BME280;25088;43.238;23.110;2022-12-18T02:58:55;97453.47;;;6.38;100.00
39363;BME280;25088;43.238;23.110;2022-12-18T03:01:28;97467.03;;;6.45;100.00
39363;BME280;25088;43.238;23.110;2022-12-18T03:03:57;97471.22;;;6.54;100.00
39363;BME280;25088;43.238;23.110;2022-12-18T03:06:25;97464.94;;;6.60;100.00
39363;BME280;25088;43.238;23.110;2022-12-18T03:08:55;97466.63;;;6.61;100.00
39363;BME280;25088;43.238;23.110;2022-12-18T03:11:22;97469.13;;;6.56;100.00
39363;BME280;25088;43.238;23.110;2022-12-18T03:14:07;97478.72;;;6.52;100.00
39363;BME280;25088;43.238;23.110;2022-12-18T03:16:34;97494.56;;;6.55;100.00
39363;BME280;25088;43.238;23.110;2022-12-18T03:19:03;97493.75;;;6.55;100.00
39363;BME280;25088;43.238;23.110;2022-12-18T03:21:33;97497.06;;;6.50;100.00
39363;BME280;25088;43.238;23.110;2022-12-18T03:24:00;97502.28;;;6.45;100.00
39363;BME280;25088;43.238;23.110;2022-12-18T03:26:26;97498.72;;;6.38;100.00
39363;BME280;25088;43.238;23.110;2022-12-18T03:28:53;97499.34;;;6.40;100.00
39363;BME280;25088;43.238;23.110;2022-12-18T03:31:21;97497.91;;;6.44;100.00
39363;BME280;25088;43.238;23.110;2022-12-18T03:33:51;97498.53;;;6.39;100.00
39363;BME280;25088;43.238;23.110;2022-12-18T03:36:17;97508.75;;;6.37;100.00
39363;BME280;25088;43.238;23.110;2022-12-18T03:38:43;97509.75;;;6.36;100.00
39363;BME280;25088;43.238;23.110;2022-12-18T03:43:52;97509.59;;;6.44;100.00
39363;BME280;25088;43.238;23.110;2022-12-18T03:49:09;97528.97;;;6.41;100.00
39363;BME280;25088;43.238;23.110;2022-12-18T03:51:38;97530.44;;;6.37;100.00
39363;BME280;25088;43.238;23.110;2022-12-18T03:54:06;97533.78;;;6.33;100.00
39363;BME280;25088;43.238;23.110;2022-12-18T03:56:40;97534.59;;;6.33;100.00
39363;BME280;25088;43.238;23.110;2022-12-18T03:59:07;97535.44;;;6.27;100.00
39363;BME280;25088;43.238;23.110;2022-12-18T04:01:35;97539.16;;;6.26;100.00
39363;BME280;25088;43.238;23.110;2022-12-18T04:04:02;97538.53;;;6.17;100.00
39363;BME280;25088;43.238;23.110;2022-12-18T04:06:28;97543.03;;;5.97;100.00
39363;BME280;25088;43.238;23.110;2022-12-18T04:08:55;97544.00;;;5.89;100.00
39363;BME280;25088;43.238;23.110;2022-12-18T04:11:21;97551.66;;;5.79;100.00
39363;BME280;25088;43.238;23.110;2022-12-18T04:13:46;97557.66;;;5.75;100.00
39363;BME280;25088;43.238;23.110;2022-12-18T04:16:12;97566.53;;;5.62;100.00
39363;BME280;25088;43.238;23.110;2022-12-18T04:18:37;97569.19;;;5.49;100.00
39363;BME280;25088;43.238;23.110;2022-12-18T04:21:02;97580.38;;;5.39;100.00
39363;BME280;25088;43.238;23.110;2022-12-18T04:23:28;97586.13;;;5.29;100.00
39363;BME280;25088;43.238;23.110;2022-12-18T04:25:53;97595.63;;;5.18;100.00
39363;BME280;25088;43.238;23.110;2022-12-18T04:28:19;97592.66;;;5.13;100.00
39363;BME280;25088;43.238;23.110;2022-12-18T04:30:44;97597.81;;;5.08;100.00
39363;BME280;25088;43.238;23.110;2022-12-18T04:33:15;97599.56;;;4.95;100.00
39363;BME280;25088;43.238;23.110;2022-12-18T04:35:42;97613.28;;;4.93;100.00
39363;BME280;25088;43.238;23.110;2022-12-18T04:38:07;97613.72;;;4.97;100.00
39363;BME280;25088;43.238;23.110;2022-12-18T04:40:33;97612.84;;;4.89;100.00
39363;BME280;25088;43.238;23.110;2022-12-18T04:42:59;97623.19;;;4.86;100.00
39363;BME280;25088;43.238;23.110;2022-12-18T04:45:24;97622.38;;;4.85;100.00
39363;BME280;25088;43.238;23.110;2022-12-18T04:47:49;97625.13;;;4.92;100.00
39363;BME280;25088;43.238;23.110;2022-12-18T04:50:14;97634.09;;;4.92;100.00
39363;BME280;25088;43.238;23.110;2022-12-18T04:52:40;97635.19;;;4.98;100.00
39363;BME280;25088;43.238;23.110;2022-12-18T04:55:05;97633.13;;;5.00;100.00
39363;BME280;25088;43.238;23.110;2022-12-18T04:57:31;97637.50;;;5.01;100.00
39363;BME280;25088;43.238;23.110;2022-12-18T04:59:56;97639.25;;;5.09;100.00
39363;BME280;25088;43.238;23.110;2022-12-18T05:02:21;97643.50;;;5.18;100.00
39363;BME280;25088;43.238;23.110;2022-12-18T05:04:47;97642.94;;;5.23;100.00
39363;BME280;25088;43.238;23.110;2022-12-18T05:07:12;97638.41;;;5.30;100.00
39363;BME280;25088;43.238;23.110;2022-12-18T05:09:37;97654.25;;;5.33;100.00
39363;BME280;25088;43.238;23.110;2022-12-18T05:12:02;97655.72;;;5.35;100.00
39363;BME280;25088;43.238;23.110;2022-12-18T05:14:28;97654.84;;;5.28;100.00
39363;BME280;25088;43.238;23.110;2022-12-18T05:16:54;97651.94;;;5.30;100.00
39363;BME280;25088;43.238;23.110;2022-12-18T05:19:19;97658.38;;;5.29;100.00
39363;BME280;25088;43.238;23.110;2022-12-18T05:21:45;97658.97;;;5.24;100.00
39363;BME280;25088;43.238;23.110;2022-12-18T05:24:10;97658.22;;;5.37;100.00
39363;BME280;25088;43.238;23.110;2022-12-18T05:26:35;97667.72;;;5.48;100.00
39363;BME280;25088;43.238;23.110;2022-12-18T05:29:01;97667.06;;;5.45;100.00
39363;BME280;25088;43.238;23.110;2022-12-18T05:31:26;97665.00;;;5.48;100.00
39363;BME280;25088;43.238;23.110;2022-12-18T05:33:51;97672.72;;;5.51;100.00
39363;BME280;25088;43.238;23.110;2022-12-18T05:36:17;97673.31;;;5.46;100.00
39363;BME280;25088;43.238;23.110;2022-12-18T05:38:42;97673.56;;;5.51;100.00
39363;BME280;25088;43.238;23.110;2022-12-18T05:41:08;97678.81;;;5.53;100.00
39363;BME280;25088;43.238;23.110;2022-12-18T05:43:34;97686.16;;;5.59;100.00
39363;BME280;25088;43.238;23.110;2022-12-18T05:46:03;97691.78;;;5.57;100.00
39363;BME280;25088;43.238;23.110;2022-12-18T05:48:28;97685.09;;;5.60;100.00
39363;BME280;25088;43.238;23.110;2022-12-18T05:50:54;97691.34;;;5.60;100.00
39363;BME280;25088;43.238;23.110;2022-12-18T05:53:19;97688.03;;;5.58;100.00
39363;BME280;25088;43.238;23.110;2022-12-18T05:55:45;97698.44;;;5.61;100.00
39363;BME280;25088;43.238;23.110;2022-12-18T05:58:11;97696.84;;;5.67;100.00
39363;BME280;25088;43.238;23.110;2022-12-18T06:00:38;97691.84;;;5.70;100.00
39363;BME280;25088;43.238;23.110;2022-12-18T06:03:07;97701.03;;;5.69;100.00
39363;BME280;25088;43.238;23.110;2022-12-18T06:05:36;97700.66;;;5.73;100.00
39363;BME280;25088;43.238;23.110;2022-12-18T06:08:02;97708.78;;;5.73;100.00
39363;BME280;25088;43.238;23.110;2022-12-18T06:10:27;97715.69;;;5.82;100.00
39363;BME280;25088;43.238;23.110;2022-12-18T06:12:53;97715.78;;;5.88;100.00
39363;BME280;25088;43.238;23.110;2022-12-18T06:15:18;97726.59;;;5.88;100.00
39363;BME280;25088;43.238;23.110;2022-12-18T06:17:43;97721.16;;;6.10;100.00
39363;BME280;25088;43.238;23.110;2022-12-18T06:20:09;97717.00;;;6.07;100.00
39363;BME280;25088;43.238;23.110;2022-12-18T06:22:34;97728.34;;;5.96;100.00
39363;BME280;25088;43.238;23.110;2022-12-18T06:25:00;97732.63;;;5.84;100.00
39363;BME280;25088;43.238;23.110;2022-12-18T06:27:25;97735.06;;;5.79;100.00
39363;BME280;25088;43.238;23.110;2022-12-18T06:29:50;97747.13;;;5.76;100.00
39363;BME280;25088;43.238;23.110;2022-12-18T06:32:16;97742.13;;;5.73;100.00
39363;BME280;25088;43.238;23.110;2022-12-18T06:34:41;97740.00;;;5.68;100.00
39363;BME280;25088;43.238;23.110;2022-12-18T06:37:07;97750.16;;;5.66;100.00
39363;BME280;25088;43.238;23.110;2022-12-18T06:39:32;97750.75;;;5.62;100.00
39363;BME280;25088;43.238;23.110;2022-12-18T06:41:57;97760.13;;;5.59;100.00
39363;BME280;25088;43.238;23.110;2022-12-18T06:44:22;97753.03;;;5.58;100.00
39363;BME280;25088;43.238;23.110;2022-12-18T06:46:48;97753.88;;;5.59;100.00
39363;BME280;25088;43.238;23.110;2022-12-18T06:49:13;97756.94;;;5.56;100.00
39363;BME280;25088;43.238;23.110;2022-12-18T06:51:38;97758.44;;;5.58;100.00
39363;BME280;25088;43.238;23.110;2022-12-18T06:54:04;97761.53;;;5.55;100.00
39363;BME280;25088;43.238;23.110;2022-12-18T06:56:29;97762.84;;;5.59;100.00
39363;BME280;25088;43.238;23.110;2022-12-18T06:58:55;97764.13;;;5.63;100.00
39363;BME280;25088;43.238;23.110;2022-12-18T07:01:20;97763.66;;;5.60;100.00
39363;BME280;25088;43.238;23.110;2022-12-18T07:03:46;97760.97;;;5.60;100.00
39363;BME280;25088;43.238;23.110;2022-12-18T07:06:13;97758.88;;;5.62;100.00
39363;BME280;25088;43.238;23.110;2022-12-18T07:08:38;97762.25;;;5.64;100.00
39363;BME280;25088;43.238;23.110;2022-12-18T07:11:04;97769.34;;;5.65;100.00
39363;BME280;25088;43.238;23.110;2022-12-18T07:13:30;97772.25;;;5.63;100.00
39363;BME280;25088;43.238;23.110;2022-12-18T07:15:55;97771.84;;;5.66;100.00
39363;BME280;25088;43.238;23.110;2022-12-18T07:18:27;97778.97;;;5.67;100.00
39363;BME280;25088;43.238;23.110;2022-12-18T07:20:52;97782.75;;;5.73;100.00
39363;BME280;25088;43.238;23.110;2022-12-18T07:23:18;97779.00;;;5.74;100.00
39363;BME280;25088;43.238;23.110;2022-12-18T07:25:43;97781.34;;;5.77;100.00
39363;BME280;25088;43.238;23.110;2022-12-18T07:28:08;97780.94;;;5.80;100.00
39363;BME280;25088;43.238;23.110;2022-12-18T07:30:36;97781.59;;;5.82;100.00
39363;BME280;25088;43.238;23.110;2022-12-18T07:33:01;97788.28;;;5.86;100.00
39363;BME280;25088;43.238;23.110;2022-12-18T07:35:26;97782.88;;;5.86;100.00
39363;BME280;25088;43.238;23.110;2022-12-18T07:37:52;97790.81;;;5.88;100.00
39363;BME280;25088;43.238;23.110;2022-12-18T07:40:17;97786.53;;;5.93;100.00
39363;BME280;25088;43.238;23.110;2022-12-18T07:42:43;97783.84;;;6.00;100.00
39363;BME280;25088;43.238;23.110;2022-12-18T07:45:08;97792.91;;;6.07;100.00
39363;BME280;25088;43.238;23.110;2022-12-18T07:47:34;97790.47;;;6.19;100.00
39363;BME280;25088;43.238;23.110;2022-12-18T07:50:01;97795.75;;;6.27;100.00
39363;BME280;25088;43.238;23.110;2022-12-18T07:52:26;97797.03;;;6.31;100.00
39363;BME280;25088;43.238;23.110;2022-12-18T07:54:51;97800.84;;;6.37;100.00
39363;BME280;25088;43.238;23.110;2022-12-18T07:57:17;97798.63;;;6.47;100.00
39363;BME280;25088;43.238;23.110;2022-12-18T07:59:43;97813.25;;;6.53;100.00
39363;BME280;25088;43.238;23.110;2022-12-18T08:02:08;97815.38;;;6.57;100.00
39363;BME280;25088;43.238;23.110;2022-12-18T08:04:34;97810.44;;;6.67;100.00
39363;BME280;25088;43.238;23.110;2022-12-18T08:06:59;97815.69;;;6.76;100.00
39363;BME280;25088;43.238;23.110;2022-12-18T08:09:25;97818.59;;;6.74;100.00
39363;BME280;25088;43.238;23.110;2022-12-18T08:11:50;97815.06;;;6.73;100.00
39363;BME280;25088;43.238;23.110;2022-12-18T08:14:15;97821.34;;;6.81;100.00
39363;BME280;25088;43.238;23.110;2022-12-18T08:16:41;97827.88;;;6.86;100.00
39363;BME280;25088;43.238;23.110;2022-12-18T08:19:06;97829.97;;;6.91;100.00
39363;BME280;25088;43.238;23.110;2022-12-18T08:21:31;97837.13;;;6.98;100.00
39363;BME280;25088;43.238;23.110;2022-12-18T08:23:58;97836.28;;;6.98;100.00
39363;BME280;25088;43.238;23.110;2022-12-18T08:26:24;97830.03;;;7.04;100.00
39363;BME280;25088;43.238;23.110;2022-12-18T08:28:50;97828.00;;;7.13;100.00
39363;BME280;25088;43.238;23.110;2022-12-18T08:31:16;97828.47;;;7.23;100.00
39363;BME280;25088;43.238;23.110;2022-12-18T08:33:41;97833.06;;;7.29;100.00
39363;BME280;25088;43.238;23.110;2022-12-18T08:36:08;97830.59;;;7.34;100.00
39363;BME280;25088;43.238;23.110;2022-12-18T08:38:33;97833.31;;;7.41;100.00
39363;BME280;25088;43.238;23.110;2022-12-18T08:41:02;97828.97;;;7.46;100.00
39363;BME280;25088;43.238;23.110;2022-12-18T08:43:28;97833.38;;;7.54;100.00
39363;BME280;25088;43.238;23.110;2022-12-18T08:46:12;97827.94;;;7.61;100.00
39363;BME280;25088;43.238;23.110;2022-12-18T08:48:37;97831.09;;;7.64;100.00
39363;BME280;25088;43.238;23.110;2022-12-18T08:51:03;97830.09;;;7.72;100.00
39363;BME280;25088;43.238;23.110;2022-12-18T08:53:29;97834.69;;;7.71;100.00
39363;BME280;25088;43.238;23.110;2022-12-18T08:55:55;97824.84;;;7.70;100.00
39363;BME280;25088;43.238;23.110;2022-12-18T08:58:21;97834.88;;;7.70;100.00
39363;BME280;25088;43.238;23.110;2022-12-18T09:00:46;97833.63;;;7.66;100.00
39363;BME280;25088;43.238;23.110;2022-12-18T09:03:12;97834.47;;;7.66;100.00
39363;BME280;25088;43.238;23.110;2022-12-18T09:05:38;97844.06;;;7.62;100.00
39363;BME280;25088;43.238;23.110;2022-12-18T09:08:03;97844.50;;;7.66;100.00
39363;BME280;25088;43.238;23.110;2022-12-18T09:10:29;97840.13;;;7.71;100.00
39363;BME280;25088;43.238;23.110;2022-12-18T09:12:54;97850.56;;;7.68;100.00
39363;BME280;25088;43.238;23.110;2022-12-18T09:15:21;97843.69;;;7.72;100.00
39363;BME280;25088;43.238;23.110;2022-12-18T09:17:46;97847.00;;;7.74;100.00
39363;BME280;25088;43.238;23.110;2022-12-18T09:20:13;97852.88;;;7.84;100.00
39363;BME280;25088;43.238;23.110;2022-12-18T09:22:38;97853.72;;;7.78;100.00
39363;BME280;25088;43.238;23.110;2022-12-18T09:25:03;97850.56;;;7.74;100.00
39363;BME280;25088;43.238;23.110;2022-12-18T09:27:33;97846.63;;;7.77;100.00
39363;BME280;25088;43.238;23.110;2022-12-18T09:29:58;97846.78;;;7.75;100.00
39363;BME280;25088;43.238;23.110;2022-12-18T09:32:23;97852.00;;;7.64;100.00
39363;BME280;25088;43.238;23.110;2022-12-18T09:34:49;97857.84;;;7.61;100.00
39363;BME280;25088;43.238;23.110;2022-12-18T09:37:14;97852.22;;;7.62;100.00
39363;BME280;25088;43.238;23.110;2022-12-18T09:39:39;97850.34;;;7.69;100.00
39363;BME280;25088;43.238;23.110;2022-12-18T09:42:05;97851.22;;;7.76;100.00
39363;BME280;25088;43.238;23.110;2022-12-18T09:44:41;97857.50;;;7.84;99.75
39363;BME280;25088;43.238;23.110;2022-12-18T09:47:18;97857.94;;;7.94;100.00
39363;BME280;25088;43.238;23.110;2022-12-18T09:49:46;97855.66;;;7.97;100.00
39363;BME280;25088;43.238;23.110;2022-12-18T09:52:19;97857.31;;;7.98;99.33
39363;BME280;25088;43.238;23.110;2022-12-18T09:55:33;97864.22;;;7.94;97.88
39363;BME280;25088;43.238;23.110;2022-12-18T09:57:33;97858.97;;;7.93;96.97
39363;BME280;25088;43.238;23.110;2022-12-18T10:00:15;97858.38;;;7.97;93.76
39363;BME280;25088;43.238;23.110;2022-12-18T10:02:40;97860.88;;;7.99;93.79
39363;BME280;25088;43.238;23.110;2022-12-18T10:22:47;97884.09;;;8.08;99.04
39363;BME280;25088;43.238;23.110;2022-12-18T10:25:26;97879.06;;;8.05;97.39
39363;BME280;25088;43.238;23.110;2022-12-18T10:27:58;97876.97;;;7.94;94.27
39363;BME280;25088;43.238;23.110;2022-12-18T10:30:25;97884.72;;;7.97;94.63
39363;BME280;25088;43.238;23.110;2022-12-18T10:32:51;97887.66;;;8.02;97.45
39363;BME280;25088;43.238;23.110;2022-12-18T10:35:24;97883.06;;;8.02;98.32
39363;BME280;25088;43.238;23.110;2022-12-18T10:38:04;97880.97;;;8.04;96.30
39363;BME280;25088;43.238;23.110;2022-12-18T10:40:29;97875.94;;;8.01;98.42
39363;BME280;25088;43.238;23.110;2022-12-18T10:43:05;97875.50;;;7.98;97.66
39363;BME280;25088;43.238;23.110;2022-12-18T10:45:35;97877.19;;;7.92;98.44
39363;BME280;25088;43.238;23.110;2022-12-18T10:48:00;97867.13;;;7.86;99.84
39363;BME280;25088;43.238;23.110;2022-12-18T10:50:30;97864.38;;;7.80;100.00
39363;BME280;25088;43.238;23.110;2022-12-18T10:53:00;97861.22;;;7.69;100.00
39363;BME280;25088;43.238;23.110;2022-12-18T10:55:32;97860.78;;;7.59;100.00
39363;BME280;25088;43.238;23.110;2022-12-18T11:00:43;97861.59;;;7.53;100.00
39363;BME280;25088;43.238;23.110;2022-12-18T11:03:28;97865.16;;;7.54;98.10
39363;BME280;25088;43.238;23.110;2022-12-18T11:08:38;97858.41;;;7.36;99.99
39363;BME280;25088;43.238;23.110;2022-12-18T11:11:04;97864.59;;;7.17;97.60
39363;BME280;25088;43.238;23.110;2022-12-18T11:13:32;97860.13;;;7.03;97.46
39363;BME280;25088;43.238;23.110;2022-12-18T11:15:57;97874.91;;;7.00;98.00
39363;BME280;25088;43.238;23.110;2022-12-18T11:18:28;97863.88;;;7.02;100.00
39363;BME280;25088;43.238;23.110;2022-12-18T11:20:54;97863.69;;;7.10;100.00
39363;BME280;25088;43.238;23.110;2022-12-18T11:23:21;97866.47;;;7.16;99.26
39363;BME280;25088;43.238;23.110;2022-12-18T11:25:50;97865.00;;;7.20;98.07
39363;BME280;25088;43.238;23.110;2022-12-18T11:28:36;97864.59;;;7.23;97.47
39363;BME280;25088;43.238;23.110;2022-12-18T11:31:21;97873.22;;;7.34;97.52
39363;BME280;25088;43.238;23.110;2022-12-18T11:33:58;97872.00;;;7.43;95.54
39363;BME280;25088;43.238;23.110;2022-12-18T11:36:25;97866.19;;;7.53;94.58
39363;BME280;25088;43.238;23.110;2022-12-18T11:38:53;97864.31;;;7.60;94.40
39363;BME280;25088;43.238;23.110;2022-12-18T11:41:25;97862.94;;;7.77;91.91
39363;BME280;25088;43.238;23.110;2022-12-18T11:44:29;97872.78;;;7.98;90.58
39363;BME280;25088;43.238;23.110;2022-12-18T11:47:09;97865.91;;;8.15;87.83
39363;BME280;25088;43.238;23.110;2022-12-18T11:49:38;97876.81;;;8.28;85.21
39363;BME280;25088;43.238;23.110;2022-12-18T11:52:12;97863.25;;;8.48;86.66
39363;BME280;25088;43.238;23.110;2022-12-18T11:54:40;97867.41;;;8.64;85.08
39363;BME280;25088;43.238;23.110;2022-12-18T12:05:06;97867.59;;;8.96;81.27
39363;BME280;25088;43.238;23.110;2022-12-18T12:07:43;97870.75;;;8.86;70.26
39363;BME280;25088;43.238;23.110;2022-12-18T12:10:27;97867.84;;;8.81;66.97
39363;BME280;25088;43.238;23.110;2022-12-18T12:13:01;97871.19;;;8.76;62.94
39363;BME280;25088;43.238;23.110;2022-12-18T12:18:21;97865.72;;;8.90;61.35
39363;BME280;25088;43.238;23.110;2022-12-18T12:33:17;97863.38;;;9.00;63.12
39363;BME280;25088;43.238;23.110;2022-12-18T12:36:00;97869.69;;;9.00;62.24
39363;BME280;25088;43.238;23.110;2022-12-18T12:38:37;97862.97;;;9.03;63.12
39363;BME280;25088;43.238;23.110;2022-12-18T12:41:06;97867.16;;;8.99;63.06
39363;BME280;25088;43.238;23.110;2022-12-18T12:43:53;97873.47;;;8.93;63.73
39363;BME280;25088;43.238;23.110;2022-12-18T12:46:21;97865.28;;;8.93;62.17
39363;BME280;25088;43.238;23.110;2022-12-18T12:51:17;97872.44;;;8.87;61.95
39363;BME280;25088;43.238;23.110;2022-12-18T12:53:44;97870.53;;;8.88;63.28
39363;BME280;25088;43.238;23.110;2022-12-18T12:56:11;97870.31;;;8.89;64.13
39363;BME280;25088;43.238;23.110;2022-12-18T13:03:50;97881.03;;;8.77;62.86
39363;BME280;25088;43.238;23.110;2022-12-18T13:09:00;97884.19;;;8.81;64.28
39363;BME280;25088;43.238;23.110;2022-12-18T13:11:42;97885.22;;;8.87;62.32
39363;BME280;25088;43.238;23.110;2022-12-18T13:16:52;97895.47;;;8.85;65.04
39363;BME280;25088;43.238;23.110;2022-12-18T13:19:37;97897.97;;;8.79;66.28
39363;BME280;25088;43.238;23.110;2022-12-18T13:22:02;97894.44;;;8.72;67.36
39363;BME280;25088;43.238;23.110;2022-12-18T13:24:28;97897.38;;;8.77;69.36
39363;BME280;25088;43.238;23.110;2022-12-18T13:26:55;97899.47;;;8.75;67.96
39363;BME280;25088;43.238;23.110;2022-12-18T13:32:10;97895.50;;;8.71;71.13
39363;BME280;25088;43.238;23.110;2022-12-18T13:34:45;97904.06;;;8.68;69.07
39363;BME280;25088;43.238;23.110;2022-12-18T13:39:54;97907.44;;;8.57;65.16
39363;BME280;25088;43.238;23.110;2022-12-18T13:47:51;97925.03;;;8.61;65.19
39363;BME280;25088;43.238;23.110;2022-12-18T13:50:25;97918.31;;;8.57;65.54
39363;BME280;25088;43.238;23.110;2022-12-18T13:52:51;97926.06;;;8.47;66.09
39363;BME280;25088;43.238;23.110;2022-12-18T13:55:18;97931.63;;;8.19;62.79
39363;BME280;25088;43.238;23.110;2022-12-18T13:57:44;97923.63;;;8.04;62.54
39363;BME280;25088;43.238;23.110;2022-12-18T14:02:44;97933.19;;;7.80;61.53
39363;BME280;25088;43.238;23.110;2022-12-18T14:05:21;97938.38;;;7.68;61.27
39363;BME280;25088;43.238;23.110;2022-12-18T14:07:46;97933.16;;;7.67;60.56
39363;BME280;25088;43.238;23.110;2022-12-18T14:10:12;97932.31;;;7.66;61.18
39363;BME280;25088;43.238;23.110;2022-12-18T14:12:40;97942.06;;;7.54;59.47
39363;BME280;25088;43.238;23.110;2022-12-18T14:17:54;97952.47;;;7.44;57.59
39363;BME280;25088;43.238;23.110;2022-12-18T14:20:20;97959.28;;;7.27;58.51
39363;BME280;25088;43.238;23.110;2022-12-18T14:22:47;97958.44;;;7.26;59.30
39363;BME280;25088;43.238;23.110;2022-12-18T14:25:18;97958.19;;;7.21;59.71
39363;BME280;25088;43.238;23.110;2022-12-18T14:27:45;97958.44;;;7.26;59.88